MDT,Max TemperatureF,Mean TemperatureF,Min TemperatureF,Max Dew PointF,MeanDew PointF,Min DewpointF,Max Humidity, Mean Humidity, Min Humidity, Max Sea Level PressureIn, Mean Sea Level PressureIn, Min Sea Level PressureIn, Max VisibilityMiles, Mean VisibilityMiles, Min VisibilityMiles, Max Wind SpeedMPH, Mean Wind SpeedMPH, Max Gust SpeedMPH,PrecipitationIn, CloudCover, Events, WindDirDegrees
2013-4-1,63,48,32,34,27,19,67,47,27,29.99,29.90,29.77,10,10,10,39,6,46,T,4,Rain-Thunderstorm,305
2013-4-2,53,45,36,36,32,29,76,57,38,29.99,29.90,29.83,10,10,7,24,8,30,0.08,3,Rain-Thunderstorm,292
2013-4-3,64,50,35,33,26,17,82,50,17,30.13,30.07,29.99,10,10,2,17,6,23,0.00,2,,284
2013-4-4,68,49,30,27,23,17,69,42,15,30.20,30.07,29.96,10,10,10,25,7,32,0.00,0,,281
2013-4-5,69,55,40,39,29,22,76,47,18,29.94,29.86,29.72,10,10,10,40,10,52,T,4,Rain,267
2013-4-6,63,48,33,39,30,20,92,56,20,30.02,29.93,29.82,10,10,10,26,8,40,0.02,3,,335
2013-4-7,64,49,33,37,30,19,100,60,20,29.92,29.78,29.62,10,10,10,36,8,46,T,2,,274
2013-4-8,58,49,39,40,32,24,100,64,28,29.60,29.43,29.29,10,10,8,37,7,46,0.05,5,Rain,255
2013-4-9,40,29,17,39,19,7,100,81,61,30.17,29.77,29.40,10,4,0,33,21,40,T,7,Fog-Snow,289
2013-4-10,41,28,15,22,12,4,73,53,33,30.29,30.17,30.05,10,10,10,26,8,32,0.00,5,,273
2013-4-11,54,43,31,34,28,21,82,61,39,30.06,29.95,29.83,10,10,8,23,4,29,T,6,Rain-Snow,322
2013-4-12,61,48,34,36,26,11,100,58,15,29.93,29.87,29.80,10,10,10,22,6,28,T,4,Rain,266
2013-4-13,63,46,29,38,27,18,82,51,19,29.86,29.65,29.36,10,9,3,40,9,47,0.26,4,Rain,270
2013-4-14,52,44,36,36,20,8,79,50,21,29.76,29.64,29.53,10,10,9,29,11,37,0.01,4,Rain,303
2013-4-15,42,37,31,34,31,20,100,70,39,29.79,29.68,29.52,10,4,0,16,4,17,0.65,8,Fog-Rain-Snow,334
2013-4-16,53,40,26,38,30,25,100,78,56,29.88,29.71,29.54,10,6,1,39,16,46,0.10,6,Snow,277
2013-4-17,32,27,22,27,20,12,100,75,49,30.20,29.89,29.78,10,3,0,30,19,36,0.21,7,Fog-Snow,288
2013-4-18,36,25,14,20,13,8,80,59,38,30.40,30.31,30.20,10,10,10,26,8,32,0.00,4,,254
2013-4-19,47,34,21,30,20,15,84,61,37,30.40,30.25,30.07,10,10,10,23,7,32,0.00,4,,256
2013-4-20,52,43,33,38,34,29,96,78,60,30.14,30.03,29.96,10,9,2,25,5,32,0.08,7,Rain-Snow,300
2013-4-21,59,46,33,37,32,16,100,60,19,30.20,30.11,29.94,10,7,0,24,6,31,0.00,3,Fog,263
2013-4-22,60,50,39,35,30,21,85,55,24,29.93,29.87,29.80,10,10,10,30,10,40,T,6,,312
2013-4-23,46,37,28,29,15,6,63,42,20,30.17,30.08,29.91,10,10,10,33,14,41,0.00,3,,301
2013-4-24,56,41,26,20,14,6,75,45,14,30.22,30.16,30.12,10,10,10,16,5,22,0.00,0,,222
2013-4-25,67,48,28,23,17,9,69,41,12,30.15,30.00,29.83,10,10,10,26,7,31,0.00,0,,274
2013-4-26,69,50,31,24,18,11,61,36,11,30.17,30.08,29.96,10,10,10,20,5,24,0.00,0,,315
2013-4-27,72,52,32,26,21,17,64,39,13,30.26,30.13,30.01,10,10,10,20,6,25,0.00,0,,282
2013-4-28,77,56,35,28,23,20,64,38,12,30.08,29.94,29.80,10,10,10,26,8,31,0.00,0,,260
2013-4-29,78,60,42,32,27,20,62,38,13,29.85,29.71,29.59,10,10,10,30,12,37,0.00,0,,256
2013-4-30,74,57,39,36,30,24,82,49,16,29.70,29.58,29.49,10,10,10,43,14,53,0.18,3,Rain,287